createdAt,value
2023-02-05T00:04:38.281Z,5.7
2023-02-05T00:09:38.672Z,5.9
2023-02-05T00:14:39.096Z,6.5
2023-02-05T00:19:39.617Z,6.6
2023-02-05T00:24:39.972Z,6.2
2023-02-05T00:29:40.496Z,6.1
2023-02-05T00:34:41.072Z,6
2023-02-05T00:39:41.653Z,5.6
2023-02-05T00:44:42.046Z,6
2023-02-05T00:49:42.516Z,6.3
2023-02-05T00:54:42.934Z,7.4
2023-02-05T00:59:43.343Z,6.9
2023-02-05T01:04:44.042Z,6.3
2023-02-05T01:09:44.587Z,6.5
2023-02-05T01:14:45.090Z,5.9
2023-02-05T01:19:45.643Z,5.9
2023-02-05T01:24:46.056Z,5.3
2023-02-05T01:29:46.538Z,5.6
2023-02-05T01:34:47.273Z,5.6
2023-02-05T01:39:47.916Z,5.4
2023-02-05T01:44:48.296Z,5.3
2023-02-05T01:49:48.885Z,5.8
2023-02-05T01:54:49.331Z,5.3
2023-02-05T01:59:49.786Z,5.3
2023-02-05T02:04:50.395Z,5.1
2023-02-05T02:09:50.795Z,4.9
2023-02-05T02:14:51.186Z,5.1
2023-02-05T02:19:51.897Z,5.3
2023-02-05T02:24:58.339Z,5.3
2023-02-05T02:29:58.820Z,4.9
2023-02-05T02:35:00.534Z,5.1
2023-02-05T02:40:03.130Z,5.1
2023-02-05T02:45:05.654Z,4.6
2023-02-05T02:50:08.085Z,5.1
2023-02-05T02:55:08.558Z,5.5
2023-02-05T03:00:09.032Z,5.5
2023-02-05T03:05:12.443Z,5
2023-02-05T03:10:13.353Z,5.1
2023-02-05T03:15:16.970Z,5
2023-02-05T03:20:17.641Z,5.1
2023-02-05T03:25:21.494Z,4.9
2023-02-05T03:30:23.518Z,4.6
2023-02-05T03:35:23.949Z,4.7
2023-02-05T03:40:29.824Z,4.9
2023-02-05T03:45:31.703Z,4.8
2023-02-05T03:50:33.558Z,4.5
2023-02-05T03:55:43.519Z,5.2
2023-02-05T04:00:48.816Z,4.9
2023-02-05T04:05:51.885Z,5
2023-02-05T04:10:54.355Z,6.5
2023-02-05T04:15:55.969Z,6.2
2023-02-05T04:20:56.396Z,5.6
2023-02-05T04:25:56.834Z,5.1
2023-02-05T04:30:59.975Z,5.2
2023-02-05T04:36:00.467Z,5.2
2023-02-05T04:41:02.070Z,4.9
2023-02-05T04:46:02.574Z,4.6
2023-02-05T04:51:03.111Z,4.4
2023-02-05T04:56:05.943Z,4.7
2023-02-05T05:01:06.413Z,4.5
2023-02-05T05:06:11.302Z,4.7
2023-02-05T05:11:12.192Z,4.3
2023-02-05T05:16:14.035Z,4.3
2023-02-05T05:21:14.480Z,4.7
2023-02-05T05:26:14.921Z,4.1
2023-02-05T05:31:15.424Z,4.1
2023-02-05T05:36:16.937Z,4.1
2023-02-05T05:41:22.929Z,4.1
2023-02-05T05:46:23.586Z,4.1
2023-02-05T05:51:28.272Z,3.8
2023-02-05T05:56:32.435Z,6
2023-02-05T06:01:35.524Z,4.9
2023-02-05T06:06:35.903Z,4.5
2023-02-05T06:11:36.374Z,3.9
2023-02-05T06:16:36.828Z,3.8
2023-02-05T06:21:40.103Z,4.1
2023-02-05T06:26:43.421Z,3.7
2023-02-05T06:31:44.275Z,8.5
2023-02-05T06:36:46.488Z,3.5
2023-02-05T06:41:49.021Z,3.2
2023-02-05T06:46:51.974Z,5
2023-02-05T06:51:55.938Z,4.4
2023-02-05T06:57:00.942Z,2.8
2023-02-05T07:02:10.856Z,3.2
2023-02-05T07:07:14.541Z,3.1
2023-02-05T07:12:16.283Z,3.1
2023-02-05T07:17:20.664Z,9
2023-02-05T07:22:21.851Z,3.6
2023-02-05T07:27:23.731Z,45.4
2023-02-05T07:32:24.399Z,89.2
2023-02-05T07:37:27.858Z,63.4
2023-02-05T07:42:34.362Z,34.4
2023-02-05T07:47:36.153Z,40.1
2023-02-05T07:52:38.580Z,36.1
2023-02-05T07:57:39.552Z,23
2023-02-05T08:02:45.588Z,17
2023-02-05T08:07:48.032Z,17.6
2023-02-05T08:12:50.234Z,13.5
2023-02-05T08:17:58.282Z,13.4
2023-02-05T08:22:58.794Z,11.3
2023-02-05T08:28:05.719Z,14.1
2023-02-05T08:33:06.775Z,12.9
2023-02-05T08:38:07.438Z,15.4
2023-02-05T08:43:07.905Z,17.9
2023-02-05T08:48:10.853Z,13.2
2023-02-05T08:53:13.337Z,10.1
2023-02-05T08:58:13.826Z,8.5
2023-02-05T09:03:14.320Z,8.2
2023-02-05T09:08:18.046Z,7.2
2023-02-05T09:13:20.855Z,5.5
2023-02-05T09:18:25.764Z,5.3
2023-02-05T09:23:26.235Z,5.4
2023-02-05T09:28:26.859Z,6.4
2023-02-05T09:33:30.062Z,16.8
2023-02-05T09:38:35.160Z,6.4
2023-02-05T09:43:45.562Z,6.1
2023-02-05T09:48:36.077Z,7.1
2023-02-05T09:53:37.096Z,11.2
2023-02-05T09:58:38.954Z,11.6
2023-02-05T10:03:39.915Z,13
2023-02-05T10:08:43.265Z,13.9
2023-02-05T10:13:45.595Z,13.8
2023-02-05T10:18:49.183Z,14.7
2023-02-05T10:23:51.663Z,13.5
2023-02-05T10:28:58.698Z,11.3
2023-02-05T10:34:09.746Z,10.6
2023-02-05T10:39:00.228Z,14.1
2023-02-05T10:44:03.663Z,10.8
2023-02-05T10:49:07.879Z,7
2023-02-05T10:54:08.462Z,7.4
2023-02-05T10:59:08.972Z,7.5
2023-02-05T11:04:12.705Z,8.5
2023-02-05T11:09:20.550Z,10.8
2023-02-05T11:14:25.955Z,8
2023-02-05T11:19:31.597Z,7.5
2023-02-05T11:24:39.607Z,7.9
2023-02-05T11:29:42.356Z,8.9
2023-02-05T11:34:49.059Z,9.5
2023-02-05T11:39:49.747Z,10.8
2023-02-05T11:44:55.038Z,11.5
2023-02-05T11:49:59.163Z,11.8
2023-02-05T11:54:59.646Z,10.3
2023-02-05T12:00:01.458Z,8.8
2023-02-05T12:05:01.969Z,8.8
2023-02-05T12:10:02.455Z,9.6
2023-02-05T12:15:02.975Z,11.1
2023-02-05T12:20:03.572Z,9.8
2023-02-05T12:25:04.078Z,10.3
2023-02-05T12:30:04.524Z,10.3
2023-02-05T12:35:08.028Z,7.9
2023-02-05T12:40:08.512Z,11.1
2023-02-05T12:45:10.285Z,9.1
2023-02-05T12:50:14.887Z,6.2
2023-02-05T12:55:18.651Z,6.6
2023-02-05T13:00:21.909Z,6.3
2023-02-05T13:05:22.471Z,6.7
2023-02-05T13:10:25.806Z,7.8
2023-02-05T13:15:30.318Z,7.2
2023-02-05T13:20:39.830Z,8.3
2023-02-05T13:25:41.990Z,10
2023-02-05T13:30:45.703Z,8
2023-02-05T13:35:49.600Z,11.7
2023-02-05T13:40:50.156Z,12.2
2023-02-05T13:45:50.717Z,7.2
2023-02-05T13:50:52.431Z,16.3
2023-02-05T13:55:53.054Z,26.2
2023-02-05T14:00:58.761Z,45.3
2023-02-05T14:06:01.872Z,45.9
2023-02-05T14:11:12.455Z,16.2
2023-02-05T14:16:05.594Z,6.3
2023-02-05T14:21:06.424Z,4.5
2023-02-05T14:26:06.924Z,4.2
2023-02-05T14:31:08.353Z,4.9
2023-02-05T14:36:09.174Z,4.2
2023-02-05T14:41:11.214Z,4.4
2023-02-05T14:46:11.745Z,4.4
2023-02-05T14:51:12.243Z,5.3
2023-02-05T14:56:12.853Z,5.7
2023-02-05T15:01:17.832Z,6.3
2023-02-05T15:06:18.413Z,7
2023-02-05T15:11:18.937Z,7.1
2023-02-05T15:16:19.634Z,5
2023-02-05T15:21:20.149Z,5.8
2023-02-05T15:26:23.116Z,5.9
2023-02-05T15:31:25.743Z,8.1
2023-02-05T15:36:31.517Z,8.1
2023-02-05T15:41:34.881Z,8.9
2023-02-05T15:46:38.463Z,10.2
2023-02-05T15:51:38.987Z,8
2023-02-05T15:56:42.931Z,6.2
2023-02-05T16:01:43.618Z,6.1
2023-02-05T16:06:48.786Z,5.3
2023-02-05T16:11:49.276Z,4.7
2023-02-05T16:16:49.817Z,4.3
2023-02-05T16:21:59.622Z,4.5
2023-02-05T16:27:02.580Z,5
2023-02-05T16:32:03.638Z,4.7
2023-02-05T16:37:04.202Z,5.2
2023-02-05T16:42:06.848Z,5.1
2023-02-05T16:47:10.677Z,5
2023-02-05T16:52:12.408Z,5.4
2023-02-05T16:57:14.449Z,5.7
2023-02-05T17:02:15.602Z,5.6
2023-02-05T17:07:20.303Z,5.9
2023-02-05T17:12:21.096Z,5.7
2023-02-05T17:17:23.413Z,6.4
2023-02-05T17:22:26.806Z,6.5
2023-02-05T17:27:32.087Z,5.8
2023-02-05T17:32:32.815Z,6.4
2023-02-05T17:37:42.322Z,18.3
2023-02-05T17:42:49.856Z,7.6
2023-02-05T17:47:50.624Z,6.5
2023-02-05T17:52:53.421Z,6.1
2023-02-05T17:57:59.025Z,6.7
2023-02-05T18:02:59.515Z,6.5
2023-02-05T18:08:02.774Z,5.5
2023-02-05T18:13:05.327Z,5.4
2023-02-05T18:18:07.633Z,5.5
2023-02-05T18:23:18.623Z,5.8
2023-02-05T18:28:16.013Z,5.8
2023-02-05T18:33:18.646Z,22.9
2023-02-05T18:38:22.111Z,5.3
2023-02-05T18:43:25.900Z,5.5
2023-02-05T18:48:26.338Z,6.1
2023-02-05T18:53:29.245Z,6.3
2023-02-05T18:58:30.981Z,6
2023-02-05T19:03:41.127Z,5.8
2023-02-05T19:08:34.506Z,6
2023-02-05T19:13:48.927Z,5.5
2023-02-05T19:18:39.701Z,6
2023-02-05T19:23:40.138Z,5.5
2023-02-05T19:28:46.662Z,5.8
2023-02-05T19:33:49.846Z,5.9
2023-02-05T19:38:52.040Z,5.9
2023-02-05T19:43:52.819Z,6.3
2023-02-05T19:49:00.966Z,6.5
2023-02-05T19:54:01.488Z,5.9
2023-02-05T19:59:04.657Z,6.2
2023-02-05T20:04:10.939Z,6.2
2023-02-05T20:09:14.147Z,6.3
2023-02-05T20:14:17.034Z,6.5
2023-02-05T20:19:20.269Z,6.8
2023-02-05T20:24:23.668Z,6.8
2023-02-05T20:29:24.214Z,17.1
2023-02-05T20:34:27.357Z,7
2023-02-05T20:39:27.773Z,6.6
2023-02-05T20:44:28.498Z,7.4
2023-02-05T20:49:35.939Z,7
2023-02-05T20:54:38.748Z,7
2023-02-05T20:59:39.210Z,6.7
2023-02-05T21:04:42.236Z,7.4
2023-02-05T21:09:45.063Z,7.2
2023-02-05T21:14:46.964Z,7.1
2023-02-05T21:19:53.694Z,7.1
2023-02-05T21:24:54.150Z,7.5
2023-02-05T21:29:57.228Z,7.2
2023-02-05T21:35:01.050Z,7.7
2023-02-05T21:40:10.014Z,7.9
2023-02-05T21:45:11.976Z,7.7
2023-02-05T21:50:12.486Z,7.6
2023-02-05T21:55:14.083Z,7.4
2023-02-05T22:00:16.704Z,8.7
2023-02-05T22:05:18.767Z,11.7
2023-02-05T22:10:23.628Z,7.5
2023-02-05T22:15:29.264Z,7.8
2023-02-05T22:20:29.905Z,7.8
2023-02-05T22:25:40.941Z,7.4
2023-02-05T22:30:33.887Z,8
2023-02-05T22:35:37.323Z,8.5
2023-02-05T22:40:39.904Z,8.6
2023-02-05T22:45:41.825Z,8.8
2023-02-05T22:50:42.556Z,8.6
2023-02-05T22:55:45.175Z,7.9
2023-02-05T23:00:45.981Z,8
2023-02-05T23:05:46.485Z,8
2023-02-05T23:10:47.041Z,7.9
2023-02-05T23:15:50.250Z,7.8
2023-02-05T23:20:50.748Z,7.9
2023-02-05T23:25:53.199Z,7.5
2023-02-05T23:30:58.417Z,7.4
2023-02-05T23:36:00.138Z,7.7
2023-02-05T23:41:01.897Z,8.5
2023-02-05T23:46:09.704Z,7.6
2023-02-05T23:51:11.676Z,7.5
2023-02-05T23:56:13.352Z,8.1
